Accueil
METAR-TAF:

METAR-TAF

Aéroports :

Aéroport international Esenboğa

Ankara Esenboğa, Turquie

latitude: 40-07N, longitude: 032-59E, altitude: 953 m

Observation

Le bulletin a été fait il y a 40 minutes, à 15:50 UTC
Vent 1 kt de est/sud-est
Température 7°C
Humidité 39%
Pression 1019 hPa
Visibilité: 8000 m

METAR: LTAC 211550Z 11001KT 8000 NSC 07/M06 Q1019 NOSIG RMK RWY21L 02003KT 340V060 RWY03L 09003KT 060V120 RWY21R 36001KT

Heure: 19:30 (16:30 UTC)

Prévision

Le bulletin a été fait il y a 5 heures et 50 minutes, à 10:40 UTC
Prévision valable du 21 à 12 UTC au 22 à 12 UTC
Vent 2 kt de direction variable
Visibilité 10 km ou plus
pas de nuages en-dessous de 1500 mètres et pas de cumulonimbus.
Evoluant progressivement
du 22 à 01 UTC au 22 à 03 UTC
Nuages épars à une hauteur de 4000 ft

TAF: LTAC 211040Z 2112/2212 VRB02KT CAVOK BECMG 2201/2203 SCT040

Observations et prévisions météorologiques de plus de 4000 aéroports (messages METAR et TAF).

Les stations disponibles sont représentées par des disques jaunes et rouges sur la carte.

Passer la souris dessus pour voir le nom de la station.

Cliquer dessus pour voir les observations et prévisions météorologiques.

Pour changer de carte: cliquez sur les boutons verts avec une croix noire pour zoomer, sur le bouton vert avec un tiret pour effectuer un zoom arrière, ou sur les flèches vertes pour les cartes adjacentes.


METAR-TAF: